sensor_id;sensor_type;location;lat;lon;timestamp;pressure;altitude;pressure_sealevel;temperature;humidity
6194;BME280;3130;41.564;23.280;2023-05-22T00:01:50;98373.75;;;17.38;68.83
6194;BME280;3130;41.564;23.280;2023-05-22T00:04:18;98376.00;;;17.41;68.65
6194;BME280;3130;41.564;23.280;2023-05-22T00:06:46;98359.47;;;17.25;69.11
6194;BME280;3130;41.564;23.280;2023-05-22T00:09:13;98380.84;;;17.36;69.03
6194;BME280;3130;41.564;23.280;2023-05-22T00:11:41;98384.25;;;17.37;68.84
6194;BME280;3130;41.564;23.280;2023-05-22T00:14:08;98379.06;;;17.37;69.01
6194;BME280;3130;41.564;23.280;2023-05-22T00:16:37;98381.88;;;17.43;69.27
6194;BME280;3130;41.564;23.280;2023-05-22T00:19:04;98361.19;;;17.34;68.89
6194;BME280;3130;41.564;23.280;2023-05-22T00:21:38;98339.94;;;17.30;68.96
6194;BME280;3130;41.564;23.280;2023-05-22T00:24:06;98373.00;;;17.63;69.05
6194;BME280;3130;41.564;23.280;2023-05-22T00:26:33;98372.47;;;17.77;68.50
6194;BME280;3130;41.564;23.280;2023-05-22T00:29:00;98366.69;;;17.83;67.69
6194;BME280;3130;41.564;23.280;2023-05-22T00:31:28;98334.34;;;17.52;68.30
6194;BME280;3130;41.564;23.280;2023-05-22T00:33:55;98270.38;;;16.91;69.31
6194;BME280;3130;41.564;23.280;2023-05-22T00:36:22;98340.03;;;17.38;69.81
6194;BME280;3130;41.564;23.280;2023-05-22T00:38:50;98367.06;;;17.53;70.35
6194;BME280;3130;41.564;23.280;2023-05-22T00:41:17;98366.63;;;17.58;70.21
6194;BME280;3130;41.564;23.280;2023-05-22T00:43:44;98369.81;;;17.52;70.10
6194;BME280;3130;41.564;23.280;2023-05-22T00:46:12;98371.28;;;17.37;70.16
6194;BME280;3130;41.564;23.280;2023-05-22T00:48:39;98370.75;;;17.33;70.11
6194;BME280;3130;41.564;23.280;2023-05-22T00:51:06;98370.25;;;17.30;70.99
6194;BME280;3130;41.564;23.280;2023-05-22T00:53:33;98370.31;;;17.38;70.57
6194;BME280;3130;41.564;23.280;2023-05-22T00:56:03;98299.84;;;17.08;70.33
6194;BME280;3130;41.564;23.280;2023-05-22T00:58:31;98338.25;;;17.39;70.41
6194;BME280;3130;41.564;23.280;2023-05-22T01:00:58;98367.28;;;17.60;70.54
6194;BME280;3130;41.564;23.280;2023-05-22T01:03:25;98368.31;;;17.49;70.60
6194;BME280;3130;41.564;23.280;2023-05-22T01:05:53;98331.59;;;17.10;70.60
6194;BME280;3130;41.564;23.280;2023-05-22T01:08:20;98363.22;;;17.40;70.56
6194;BME280;3130;41.564;23.280;2023-05-22T01:10:50;98300.28;;;17.03;70.67
6194;BME280;3130;41.564;23.280;2023-05-22T01:13:28;98360.72;;;17.48;70.63
6194;BME280;3130;41.564;23.280;2023-05-22T01:16:04;98341.22;;;17.44;70.94
6194;BME280;3130;41.564;23.280;2023-05-22T01:18:41;98350.25;;;17.57;71.20
6194;BME280;3130;41.564;23.280;2023-05-22T01:21:14;98351.31;;;17.47;71.20
6194;BME280;3130;41.564;23.280;2023-05-22T01:30:20;98347.09;;;17.19;72.13
6194;BME280;3130;41.564;23.280;2023-05-22T01:32:56;98307.38;;;17.01;72.22
6194;BME280;3130;41.564;23.280;2023-05-22T01:35:24;98353.97;;;17.37;71.90
6194;BME280;3130;41.564;23.280;2023-05-22T01:37:53;98349.81;;;17.44;72.29
6194;BME280;3130;41.564;23.280;2023-05-22T01:40:21;98347.75;;;17.48;71.84
6194;BME280;3130;41.564;23.280;2023-05-22T01:42:50;98351.44;;;17.63;71.17
6194;BME280;3130;41.564;23.280;2023-05-22T01:45:17;98341.19;;;17.61;71.66
6194;BME280;3130;41.564;23.280;2023-05-22T01:47:44;98287.00;;;17.33;71.72
6194;BME280;3130;41.564;23.280;2023-05-22T01:50:12;98337.53;;;17.64;71.87
6194;BME280;3130;41.564;23.280;2023-05-22T01:52:48;98316.19;;;17.52;71.16
6194;BME280;3130;41.564;23.280;2023-05-22T01:55:24;98288.63;;;17.34;71.49
6194;BME280;3130;41.564;23.280;2023-05-22T01:57:59;98324.97;;;17.59;71.37
6194;BME280;3130;41.564;23.280;2023-05-22T02:00:29;98330.69;;;17.63;71.23
6194;BME280;3130;41.564;23.280;2023-05-22T02:03:02;98327.78;;;17.66;71.22
6194;BME280;3130;41.564;23.280;2023-05-22T02:05:37;98327.56;;;17.59;70.86
6194;BME280;3130;41.564;23.280;2023-05-22T02:08:05;98321.38;;;17.52;71.37
6194;BME280;3130;41.564;23.280;2023-05-22T02:10:34;98324.25;;;17.49;71.33
6194;BME280;3130;41.564;23.280;2023-05-22T02:13:02;98297.78;;;17.28;71.28
6194;BME280;3130;41.564;23.280;2023-05-22T02:15:29;98323.75;;;17.46;71.46
6194;BME280;3130;41.564;23.280;2023-05-22T02:17:58;98322.69;;;17.39;71.90
6194;BME280;3130;41.564;23.280;2023-05-22T02:20:26;98329.06;;;17.44;71.61
6194;BME280;3130;41.564;23.280;2023-05-22T02:22:54;98301.06;;;17.30;72.02
6194;BME280;3130;41.564;23.280;2023-05-22T02:25:21;98323.94;;;17.35;72.52
6194;BME280;3130;41.564;23.280;2023-05-22T02:27:48;98320.59;;;17.25;73.29
6194;BME280;3130;41.564;23.280;2023-05-22T02:30:15;98313.63;;;17.25;73.72
6194;BME280;3130;41.564;23.280;2023-05-22T02:32:42;98313.88;;;17.32;73.84
6194;BME280;3130;41.564;23.280;2023-05-22T02:35:09;98207.19;;;16.84;73.80
6194;BME280;3130;41.564;23.280;2023-05-22T02:37:36;98335.44;;;17.50;74.92
6194;BME280;3130;41.564;23.280;2023-05-22T02:40:06;98312.84;;;17.42;74.64
6194;BME280;3130;41.564;23.280;2023-05-22T02:42:34;98336.25;;;17.50;75.00
6194;BME280;3130;41.564;23.280;2023-05-22T02:45:02;98331.94;;;17.41;74.64
6194;BME280;3130;41.564;23.280;2023-05-22T02:47:29;98339.44;;;17.44;75.04
6194;BME280;3130;41.564;23.280;2023-05-22T02:49:56;98347.13;;;17.54;74.82
6194;BME280;3130;41.564;23.280;2023-05-22T02:52:23;98342.09;;;17.52;74.84
6194;BME280;3130;41.564;23.280;2023-05-22T02:54:52;98291.66;;;17.12;75.06
6194;BME280;3130;41.564;23.280;2023-05-22T02:57:21;98310.97;;;17.17;75.62
6194;BME280;3130;41.564;23.280;2023-05-22T02:59:48;98345.56;;;17.26;76.65
6194;BME280;3130;41.564;23.280;2023-05-22T03:02:15;98341.75;;;17.30;77.13
6194;BME280;3130;41.564;23.280;2023-05-22T03:04:42;98346.69;;;17.14;77.18
6194;BME280;3130;41.564;23.280;2023-05-22T03:07:09;98341.94;;;16.92;77.98
6194;BME280;3130;41.564;23.280;2023-05-22T03:09:36;98342.31;;;16.97;78.46
6194;BME280;3130;41.564;23.280;2023-05-22T03:12:04;98341.28;;;17.08;78.73
6194;BME280;3130;41.564;23.280;2023-05-22T03:14:32;98349.63;;;17.11;78.91
6194;BME280;3130;41.564;23.280;2023-05-22T03:17:00;98308.94;;;16.94;78.89
6194;BME280;3130;41.564;23.280;2023-05-22T03:19:27;98259.38;;;16.62;78.41
6194;BME280;3130;41.564;23.280;2023-05-22T03:21:54;98347.25;;;17.17;78.15
6194;BME280;3130;41.564;23.280;2023-05-22T03:24:22;98343.75;;;17.09;78.54
6194;BME280;3130;41.564;23.280;2023-05-22T03:26:49;98334.41;;;16.99;79.27
6194;BME280;3130;41.564;23.280;2023-05-22T03:29:15;98348.72;;;17.03;79.22
6194;BME280;3130;41.564;23.280;2023-05-22T03:31:44;98344.16;;;17.05;79.05
6194;BME280;3130;41.564;23.280;2023-05-22T03:34:11;98343.31;;;17.14;79.16
6194;BME280;3130;41.564;23.280;2023-05-22T03:36:38;98344.28;;;17.13;79.49
6194;BME280;3130;41.564;23.280;2023-05-22T03:39:05;98347.59;;;17.05;79.31
6194;BME280;3130;41.564;23.280;2023-05-22T03:41:32;98347.59;;;16.78;80.05
6194;BME280;3130;41.564;23.280;2023-05-22T03:44:01;98348.03;;;16.74;80.95
6194;BME280;3130;41.564;23.280;2023-05-22T03:46:29;98355.75;;;16.83;80.53
6194;BME280;3130;41.564;23.280;2023-05-22T03:48:57;98349.03;;;16.90;80.44
6194;BME280;3130;41.564;23.280;2023-05-22T03:51:24;98364.00;;;16.96;80.36
6194;BME280;3130;41.564;23.280;2023-05-22T03:53:51;98337.50;;;16.85;79.90
6194;BME280;3130;41.564;23.280;2023-05-22T03:56:18;98364.59;;;17.08;79.63
6194;BME280;3130;41.564;23.280;2023-05-22T03:58:45;98356.38;;;17.21;79.03
6194;BME280;3130;41.564;23.280;2023-05-22T04:01:12;98339.31;;;17.19;79.49
6194;BME280;3130;41.564;23.280;2023-05-22T04:03:41;98366.91;;;17.55;77.57
6194;BME280;3130;41.564;23.280;2023-05-22T04:06:09;98365.78;;;17.57;78.09
6194;BME280;3130;41.564;23.280;2023-05-22T04:08:38;98351.22;;;17.39;78.45
6194;BME280;3130;41.564;23.280;2023-05-22T04:11:05;98363.53;;;17.54;78.71
6194;BME280;3130;41.564;23.280;2023-05-22T04:13:32;98371.53;;;17.61;77.79
6194;BME280;3130;41.564;23.280;2023-05-22T04:15:59;98368.97;;;17.69;78.16
6194;BME280;3130;41.564;23.280;2023-05-22T04:18:28;98368.56;;;17.56;77.99
6194;BME280;3130;41.564;23.280;2023-05-22T04:20:55;98375.50;;;17.73;77.90
6194;BME280;3130;41.564;23.280;2023-05-22T04:23:24;98278.84;;;17.28;77.83
6194;BME280;3130;41.564;23.280;2023-05-22T04:25:51;98363.34;;;17.91;77.65
6194;BME280;3130;41.564;23.280;2023-05-22T04:28:18;98377.09;;;18.09;76.89
6194;BME280;3130;41.564;23.280;2023-05-22T04:30:46;98378.94;;;18.16;76.40
6194;BME280;3130;41.564;23.280;2023-05-22T04:33:14;98367.41;;;18.18;76.14
6194;BME280;3130;41.564;23.280;2023-05-22T04:35:41;98346.13;;;18.07;76.36
6194;BME280;3130;41.564;23.280;2023-05-22T04:38:08;98374.72;;;18.32;76.63
6194;BME280;3130;41.564;23.280;2023-05-22T04:40:37;98375.38;;;18.34;76.79
6194;BME280;3130;41.564;23.280;2023-05-22T04:43:04;98385.13;;;18.40;76.07
6194;BME280;3130;41.564;23.280;2023-05-22T04:45:32;98372.16;;;18.40;75.59
6194;BME280;3130;41.564;23.280;2023-05-22T04:48:00;98367.97;;;18.47;75.41
6194;BME280;3130;41.564;23.280;2023-05-22T04:50:27;98399.41;;;18.70;74.84
6194;BME280;3130;41.564;23.280;2023-05-22T04:52:57;98387.16;;;18.80;74.19
6194;BME280;3130;41.564;23.280;2023-05-22T04:55:29;98359.91;;;18.58;73.52
6194;BME280;3130;41.564;23.280;2023-05-22T04:57:59;98388.59;;;18.82;73.29
6194;BME280;3130;41.564;23.280;2023-05-22T05:00:27;98399.03;;;18.90;73.29
6194;BME280;3130;41.564;23.280;2023-05-22T05:02:54;98391.88;;;18.92;72.48
6194;BME280;3130;41.564;23.280;2023-05-22T05:05:22;98406.22;;;18.96;72.45
6194;BME280;3130;41.564;23.280;2023-05-22T05:07:50;98400.41;;;19.02;72.45
6194;BME280;3130;41.564;23.280;2023-05-22T05:10:17;98409.34;;;19.08;71.05
6194;BME280;3130;41.564;23.280;2023-05-22T05:12:44;98407.53;;;19.08;70.59
6194;BME280;3130;41.564;23.280;2023-05-22T05:15:13;98327.66;;;18.69;70.69
6194;BME280;3130;41.564;23.280;2023-05-22T05:17:40;98406.31;;;19.12;71.77
6194;BME280;3130;41.564;23.280;2023-05-22T05:20:07;98381.63;;;19.16;71.95
6194;BME280;3130;41.564;23.280;2023-05-22T05:22:35;98395.81;;;19.29;72.07
6194;BME280;3130;41.564;23.280;2023-05-22T05:25:03;98392.91;;;19.32;72.09
6194;BME280;3130;41.564;23.280;2023-05-22T05:27:30;98394.97;;;19.29;72.14
6194;BME280;3130;41.564;23.280;2023-05-22T05:29:57;98399.56;;;19.35;71.88
6194;BME280;3130;41.564;23.280;2023-05-22T05:32:26;98395.31;;;19.42;72.20
6194;BME280;3130;41.564;23.280;2023-05-22T05:34:53;98400.53;;;19.42;72.70
6194;BME280;3130;41.564;23.280;2023-05-22T05:37:20;98406.53;;;19.27;71.97
6194;BME280;3130;41.564;23.280;2023-05-22T05:39:48;98373.44;;;19.11;70.80
6194;BME280;3130;41.564;23.280;2023-05-22T05:42:15;98400.69;;;19.32;71.17
6194;BME280;3130;41.564;23.280;2023-05-22T05:44:43;98403.66;;;19.45;71.21
6194;BME280;3130;41.564;23.280;2023-05-22T05:47:10;98401.53;;;19.49;70.83
6194;BME280;3130;41.564;23.280;2023-05-22T05:49:38;98393.91;;;19.47;71.15
6194;BME280;3130;41.564;23.280;2023-05-22T05:52:05;98412.63;;;19.59;69.88
6194;BME280;3130;41.564;23.280;2023-05-22T05:54:33;98412.31;;;19.70;69.33
6194;BME280;3130;41.564;23.280;2023-05-22T05:57:00;98417.84;;;19.83;67.94
6194;BME280;3130;41.564;23.280;2023-05-22T05:59:27;98408.31;;;19.99;67.69
6194;BME280;3130;41.564;23.280;2023-05-22T06:01:56;98412.38;;;20.10;67.33
6194;BME280;3130;41.564;23.280;2023-05-22T06:04:23;98409.13;;;20.08;66.88
6194;BME280;3130;41.564;23.280;2023-05-22T06:06:54;98410.38;;;19.96;67.28
6194;BME280;3130;41.564;23.280;2023-05-22T06:09:21;98419.66;;;20.06;67.75
6194;BME280;3130;41.564;23.280;2023-05-22T06:11:48;98425.22;;;20.19;67.71
6194;BME280;3130;41.564;23.280;2023-05-22T06:14:14;98425.69;;;20.30;63.31
6194;BME280;3130;41.564;23.280;2023-05-22T06:16:41;98425.19;;;20.43;60.36
6194;BME280;3130;41.564;23.280;2023-05-22T06:19:10;98433.66;;;20.53;59.98
6194;BME280;3130;41.564;23.280;2023-05-22T06:21:37;98423.53;;;20.58;58.48
6194;BME280;3130;41.564;23.280;2023-05-22T06:24:06;98420.09;;;20.65;57.89
6194;BME280;3130;41.564;23.280;2023-05-22T06:26:33;98382.53;;;20.44;56.87
6194;BME280;3130;41.564;23.280;2023-05-22T06:29:00;98419.91;;;20.75;61.46
6194;BME280;3130;41.564;23.280;2023-05-22T06:31:27;98419.28;;;20.81;64.96
6194;BME280;3130;41.564;23.280;2023-05-22T06:33:54;98411.47;;;20.65;68.37
6194;BME280;3130;41.564;23.280;2023-05-22T06:36:21;98379.09;;;20.51;69.55
6194;BME280;3130;41.564;23.280;2023-05-22T06:38:48;98392.97;;;20.28;70.41
6194;BME280;3130;41.564;23.280;2023-05-22T06:41:17;98420.81;;;20.35;72.26
6194;BME280;3130;41.564;23.280;2023-05-22T06:43:45;98427.31;;;20.31;72.47
6194;BME280;3130;41.564;23.280;2023-05-22T06:46:12;98276.19;;;19.29;74.29
6194;BME280;3130;41.564;23.280;2023-05-22T06:48:39;98418.03;;;20.21;74.79
6194;BME280;3130;41.564;23.280;2023-05-22T06:51:06;98424.06;;;20.22;74.50
6194;BME280;3130;41.564;23.280;2023-05-22T06:53:35;98378.69;;;20.00;74.47
6194;BME280;3130;41.564;23.280;2023-05-22T06:56:03;98373.78;;;20.05;74.11
6194;BME280;3130;41.564;23.280;2023-05-22T06:58:31;98440.81;;;20.51;73.88
6194;BME280;3130;41.564;23.280;2023-05-22T07:00:58;98433.31;;;20.56;73.05
6194;BME280;3130;41.564;23.280;2023-05-22T07:03:26;98285.94;;;19.75;72.83
6194;BME280;3130;41.564;23.280;2023-05-22T07:05:54;98431.81;;;20.77;72.93
6194;BME280;3130;41.564;23.280;2023-05-22T07:08:24;98412.66;;;20.46;73.82
6194;BME280;3130;41.564;23.280;2023-05-22T07:10:51;98422.41;;;20.52;73.99
6194;BME280;3130;41.564;23.280;2023-05-22T07:13:18;98392.94;;;20.44;74.05
6194;BME280;3130;41.564;23.280;2023-05-22T07:15:46;98427.59;;;20.68;73.49
6194;BME280;3130;41.564;23.280;2023-05-22T07:18:14;98425.97;;;20.67;73.10
6194;BME280;3130;41.564;23.280;2023-05-22T07:20:41;98429.22;;;20.77;72.99
6194;BME280;3130;41.564;23.280;2023-05-22T07:23:08;98425.28;;;20.89;71.90
6194;BME280;3130;41.564;23.280;2023-05-22T07:25:35;98425.09;;;20.91;70.85
6194;BME280;3130;41.564;23.280;2023-05-22T07:28:02;98418.38;;;21.12;68.80
6194;BME280;3130;41.564;23.280;2023-05-22T07:30:34;98406.63;;;21.08;68.79
6194;BME280;3130;41.564;23.280;2023-05-22T07:33:04;98413.78;;;21.14;68.19
6194;BME280;3130;41.564;23.280;2023-05-22T07:35:31;98414.94;;;21.12;68.15
6194;BME280;3130;41.564;23.280;2023-05-22T07:37:59;98417.38;;;21.13;68.33
6194;BME280;3130;41.564;23.280;2023-05-22T07:40:26;98405.00;;;21.15;68.22
6194;BME280;3130;41.564;23.280;2023-05-22T07:42:53;98416.53;;;21.51;67.26
6194;BME280;3130;41.564;23.280;2023-05-22T07:45:20;98409.91;;;21.71;66.70
6194;BME280;3130;41.564;23.280;2023-05-22T07:47:47;98388.97;;;21.79;64.42
6194;BME280;3130;41.564;23.280;2023-05-22T07:50:16;98420.28;;;22.01;63.88
6194;BME280;3130;41.564;23.280;2023-05-22T07:52:43;98390.91;;;21.85;64.03
6194;BME280;3130;41.564;23.280;2023-05-22T07:55:10;98411.59;;;22.09;63.57
6194;BME280;3130;41.564;23.280;2023-05-22T07:57:38;98428.25;;;22.08;62.83
6194;BME280;3130;41.564;23.280;2023-05-22T08:00:06;98404.84;;;22.14;62.46
6194;BME280;3130;41.564;23.280;2023-05-22T08:02:38;98405.38;;;22.10;61.01
6194;BME280;3130;41.564;23.280;2023-05-22T08:05:06;98431.84;;;22.07;60.95
6194;BME280;3130;41.564;23.280;2023-05-22T08:07:35;98376.84;;;21.63;61.54
6194;BME280;3130;41.564;23.280;2023-05-22T08:10:06;98421.06;;;21.87;63.41
6194;BME280;3130;41.564;23.280;2023-05-22T08:12:34;98425.19;;;21.82;63.69
6194;BME280;3130;41.564;23.280;2023-05-22T08:15:01;98420.59;;;21.84;64.68
6194;BME280;3130;41.564;23.280;2023-05-22T08:17:28;98431.56;;;22.02;63.04
6194;BME280;3130;41.564;23.280;2023-05-22T08:19:56;98433.88;;;22.19;60.32
6194;BME280;3130;41.564;23.280;2023-05-22T08:22:23;98419.75;;;22.28;59.71
6194;BME280;3130;41.564;23.280;2023-05-22T08:24:52;98403.97;;;22.22;57.87
6194;BME280;3130;41.564;23.280;2023-05-22T08:27:19;98426.13;;;22.26;58.19
6194;BME280;3130;41.564;23.280;2023-05-22T08:29:46;98409.88;;;22.38;58.16
6194;BME280;3130;41.564;23.280;2023-05-22T08:32:13;98426.88;;;22.56;57.40
6194;BME280;3130;41.564;23.280;2023-05-22T08:34:59;98422.53;;;22.63;56.18
6194;BME280;3130;41.564;23.280;2023-05-22T08:37:26;98430.84;;;22.52;56.56
6194;BME280;3130;41.564;23.280;2023-05-22T08:39:55;98416.22;;;22.58;57.57
6194;BME280;3130;41.564;23.280;2023-05-22T08:42:22;98421.56;;;22.64;60.51
6194;BME280;3130;41.564;23.280;2023-05-22T08:44:49;98422.13;;;22.74;61.55
6194;BME280;3130;41.564;23.280;2023-05-22T08:47:16;98393.03;;;22.40;61.47
6194;BME280;3130;41.564;23.280;2023-05-22T08:49:47;98393.56;;;22.36;62.14
6194;BME280;3130;41.564;23.280;2023-05-22T08:52:21;98411.44;;;22.47;62.00
6194;BME280;3130;41.564;23.280;2023-05-22T08:54:51;98407.50;;;22.65;60.83
6194;BME280;3130;41.564;23.280;2023-05-22T08:57:22;98386.56;;;22.37;61.55
6194;BME280;3130;41.564;23.280;2023-05-22T08:59:50;98429.84;;;22.68;61.56
6194;BME280;3130;41.564;23.280;2023-05-22T09:02:20;98402.25;;;22.51;61.96
6194;BME280;3130;41.564;23.280;2023-05-22T09:04:48;98434.28;;;22.67;61.52
6194;BME280;3130;41.564;23.280;2023-05-22T09:07:15;98424.38;;;22.40;59.39
6194;BME280;3130;41.564;23.280;2023-05-22T09:09:43;98415.06;;;22.46;60.30
6194;BME280;3130;41.564;23.280;2023-05-22T09:12:10;98394.78;;;22.48;60.07
6194;BME280;3130;41.564;23.280;2023-05-22T09:14:39;98441.75;;;22.70;59.33
6194;BME280;3130;41.564;23.280;2023-05-22T09:17:07;98382.00;;;22.31;60.27
6194;BME280;3130;41.564;23.280;2023-05-22T09:19:35;98346.84;;;22.19;60.79
6194;BME280;3130;41.564;23.280;2023-05-22T09:24:31;98403.91;;;22.30;58.71
6194;BME280;3130;41.564;23.280;2023-05-22T09:27:05;98453.38;;;22.68;59.03
6194;BME280;3130;41.564;23.280;2023-05-22T09:29:50;98425.75;;;22.51;58.80
6194;BME280;3130;41.564;23.280;2023-05-22T09:32:19;98449.41;;;22.72;59.26
6194;BME280;3130;41.564;23.280;2023-05-22T09:34:48;98449.53;;;22.41;59.65
6194;BME280;3130;41.564;23.280;2023-05-22T09:37:17;98403.16;;;22.21;60.13
6194;BME280;3130;41.564;23.280;2023-05-22T09:39:50;98432.94;;;22.71;60.17
6194;BME280;3130;41.564;23.280;2023-05-22T09:42:19;98399.00;;;22.63;60.46
6194;BME280;3130;41.564;23.280;2023-05-22T09:44:49;98452.31;;;23.06;58.96
6194;BME280;3130;41.564;23.280;2023-05-22T09:47:19;98437.84;;;23.18;59.38
6194;BME280;3130;41.564;23.280;2023-05-22T09:49:46;98457.75;;;23.33;59.34
6194;BME280;3130;41.564;23.280;2023-05-22T09:52:14;98443.00;;;23.46;58.38
6194;BME280;3130;41.564;23.280;2023-05-22T09:54:46;98444.69;;;23.68;58.14
6194;BME280;3130;41.564;23.280;2023-05-22T09:57:16;98442.50;;;23.86;57.01
6194;BME280;3130;41.564;23.280;2023-05-22T09:59:49;98436.81;;;24.04;55.20
6194;BME280;3130;41.564;23.280;2023-05-22T10:02:20;98430.13;;;24.22;54.63
6194;BME280;3130;41.564;23.280;2023-05-22T10:04:48;98437.78;;;24.45;52.33
6194;BME280;3130;41.564;23.280;2023-05-22T10:07:17;98439.28;;;24.33;52.17
6194;BME280;3130;41.564;23.280;2023-05-22T10:09:49;98435.66;;;24.34;53.70
6194;BME280;3130;41.564;23.280;2023-05-22T10:12:18;98437.22;;;24.28;52.56
6194;BME280;3130;41.564;23.280;2023-05-22T10:14:46;98435.31;;;24.43;51.29
6194;BME280;3130;41.564;23.280;2023-05-22T10:17:16;98434.13;;;24.18;50.80
6194;BME280;3130;41.564;23.280;2023-05-22T10:19:43;98409.44;;;23.71;53.76
6194;BME280;3130;41.564;23.280;2023-05-22T10:22:13;98397.44;;;23.41;54.23
6194;BME280;3130;41.564;23.280;2023-05-22T10:24:45;98419.09;;;23.49;55.67
6194;BME280;3130;41.564;23.280;2023-05-22T10:27:13;98418.84;;;23.80;55.37
6194;BME280;3130;41.564;23.280;2023-05-22T10:29:45;98428.41;;;23.87;55.08
6194;BME280;3130;41.564;23.280;2023-05-22T10:32:23;98428.47;;;24.15;53.71
6194;BME280;3130;41.564;23.280;2023-05-22T10:35:18;98406.91;;;24.19;53.45
6194;BME280;3130;41.564;23.280;2023-05-22T10:37:51;98424.13;;;24.07;45.36
6194;BME280;3130;41.564;23.280;2023-05-22T10:40:24;98415.63;;;24.26;44.33
6194;BME280;3130;41.564;23.280;2023-05-22T10:42:58;98404.63;;;24.58;43.57
6194;BME280;3130;41.564;23.280;2023-05-22T10:45:26;98419.69;;;24.77;41.95
6194;BME280;3130;41.564;23.280;2023-05-22T10:48:06;98420.91;;;24.53;41.66
6194;BME280;3130;41.564;23.280;2023-05-22T10:50:34;98419.28;;;24.52;42.04
6194;BME280;3130;41.564;23.280;2023-05-22T10:53:21;98408.72;;;24.67;42.54
6194;BME280;3130;41.564;23.280;2023-05-22T10:55:49;98397.09;;;24.76;42.72
6194;BME280;3130;41.564;23.280;2023-05-22T10:58:24;98405.31;;;25.07;42.80
6194;BME280;3130;41.564;23.280;2023-05-22T11:01:07;98405.22;;;25.28;41.25
6194;BME280;3130;41.564;23.280;2023-05-22T11:03:57;98399.25;;;25.47;41.64
6194;BME280;3130;41.564;23.280;2023-05-22T11:06:33;98404.31;;;25.54;39.81
6194;BME280;3130;41.564;23.280;2023-05-22T11:09:18;98365.00;;;25.14;39.31
6194;BME280;3130;41.564;23.280;2023-05-22T11:11:46;98389.28;;;25.29;38.52
6194;BME280;3130;41.564;23.280;2023-05-22T11:14:16;98381.44;;;25.42;39.71
6194;BME280;3130;41.564;23.280;2023-05-22T11:16:43;98382.66;;;25.40;39.53
6194;BME280;3130;41.564;23.280;2023-05-22T11:19:14;98343.03;;;25.28;39.55
6194;BME280;3130;41.564;23.280;2023-05-22T11:21:42;98396.66;;;25.59;36.77
6194;BME280;3130;41.564;23.280;2023-05-22T11:24:09;98391.41;;;25.59;37.39
6194;BME280;3130;41.564;23.280;2023-05-22T11:26:40;98385.56;;;25.77;36.32
6194;BME280;3130;41.564;23.280;2023-05-22T11:29:08;98390.66;;;25.98;35.84
6194;BME280;3130;41.564;23.280;2023-05-22T11:31:35;98389.44;;;26.00;35.47
6194;BME280;3130;41.564;23.280;2023-05-22T11:34:02;98385.22;;;26.25;34.87
6194;BME280;3130;41.564;23.280;2023-05-22T11:36:31;98365.19;;;26.31;35.28
6194;BME280;3130;41.564;23.280;2023-05-22T11:38:59;98386.63;;;26.41;32.92
6194;BME280;3130;41.564;23.280;2023-05-22T11:41:31;98382.81;;;26.24;33.96
6194;BME280;3130;41.564;23.280;2023-05-22T11:43:59;98269.41;;;25.81;34.62
6194;BME280;3130;41.564;23.280;2023-05-22T11:46:26;98360.53;;;26.33;33.71
6194;BME280;3130;41.564;23.280;2023-05-22T11:48:55;98375.09;;;26.42;34.13
6194;BME280;3130;41.564;23.280;2023-05-22T11:51:22;98372.09;;;26.12;34.19
6194;BME280;3130;41.564;23.280;2023-05-22T11:53:51;98371.06;;;26.20;34.62
6194;BME280;3130;41.564;23.280;2023-05-22T11:56:19;98358.72;;;26.20;35.72
6194;BME280;3130;41.564;23.280;2023-05-22T11:58:47;98374.94;;;26.17;35.31
6194;BME280;3130;41.564;23.280;2023-05-22T12:01:15;98373.28;;;26.29;33.62
6194;BME280;3130;41.564;23.280;2023-05-22T12:03:42;98361.97;;;26.48;32.60
6194;BME280;3130;41.564;23.280;2023-05-22T12:06:09;98351.34;;;26.80;33.36
6194;BME280;3130;41.564;23.280;2023-05-22T12:08:36;98364.16;;;26.70;32.54
6194;BME280;3130;41.564;23.280;2023-05-22T12:11:05;98345.91;;;26.82;32.90
6194;BME280;3130;41.564;23.280;2023-05-22T12:13:32;98359.00;;;26.95;31.11
6194;BME280;3130;41.564;23.280;2023-05-22T12:15:59;98358.59;;;26.98;31.30
6194;BME280;3130;41.564;23.280;2023-05-22T12:18:27;98348.25;;;27.03;31.06
6194;BME280;3130;41.564;23.280;2023-05-22T12:21:00;98353.22;;;27.30;31.09
6194;BME280;3130;41.564;23.280;2023-05-22T12:23:27;98335.09;;;27.47;30.48
6194;BME280;3130;41.564;23.280;2023-05-22T12:25:57;98340.00;;;27.74;29.84
6194;BME280;3130;41.564;23.280;2023-05-22T12:28:26;98347.56;;;27.95;29.84
6194;BME280;3130;41.564;23.280;2023-05-22T12:30:54;98329.81;;;27.84;29.97
6194;BME280;3130;41.564;23.280;2023-05-22T12:33:25;98354.34;;;28.09;29.77
6194;BME280;3130;41.564;23.280;2023-05-22T12:35:52;98336.53;;;27.80;29.96
6194;BME280;3130;41.564;23.280;2023-05-22T12:38:20;98346.19;;;27.55;31.13
6194;BME280;3130;41.564;23.280;2023-05-22T12:40:47;98347.34;;;27.66;31.12
6194;BME280;3130;41.564;23.280;2023-05-22T12:43:15;98350.25;;;27.58;31.48
6194;BME280;3130;41.564;23.280;2023-05-22T12:45:43;98329.47;;;27.37;31.54
6194;BME280;3130;41.564;23.280;2023-05-22T12:48:10;98347.88;;;27.43;30.71
6194;BME280;3130;41.564;23.280;2023-05-22T12:50:38;98343.41;;;27.44;30.80
6194;BME280;3130;41.564;23.280;2023-05-22T12:53:05;98348.72;;;27.37;31.20
6194;BME280;3130;41.564;23.280;2023-05-22T12:55:32;98338.59;;;27.34;31.66
6194;BME280;3130;41.564;23.280;2023-05-22T12:57:59;98345.22;;;27.06;30.99
6194;BME280;3130;41.564;23.280;2023-05-22T13:00:26;98339.94;;;26.99;31.52
6194;BME280;3130;41.564;23.280;2023-05-22T13:02:55;98356.78;;;26.92;31.02
6194;BME280;3130;41.564;23.280;2023-05-22T13:05:22;98347.38;;;26.33;33.11
6194;BME280;3130;41.564;23.280;2023-05-22T13:07:49;98329.38;;;26.36;33.23
6194;BME280;3130;41.564;23.280;2023-05-22T13:10:17;98345.59;;;26.33;33.96
6194;BME280;3130;41.564;23.280;2023-05-22T13:12:44;98339.72;;;26.44;33.58
6194;BME280;3130;41.564;23.280;2023-05-22T13:15:15;98344.34;;;26.36;34.00
6194;BME280;3130;41.564;23.280;2023-05-22T13:17:42;98342.13;;;26.33;33.31
6194;BME280;3130;41.564;23.280;2023-05-22T13:20:11;98336.88;;;26.46;33.90
6194;BME280;3130;41.564;23.280;2023-05-22T13:22:39;98318.88;;;26.23;35.17
6194;BME280;3130;41.564;23.280;2023-05-22T13:25:07;98339.09;;;26.49;35.83
6194;BME280;3130;41.564;23.280;2023-05-22T13:27:34;98336.28;;;26.24;36.13